Time;durP1;ratioP1;P1;durP2;ratioP2;P2;SDS_P1;SDS_P2;PMS_P1;PMS_P2;Temp;Humidity;BMP_temperature;BMP_pressure;BME280_temperature;BME280_humidity;BME280_pressure;Samples;Min_cycle;Max_cycle;Signal;HPM_P1;HPM_P2
2021/08/01 00:00:34;;;;;;;16.00;14.30;;;;;;;;;;5053192;28;20532;-72
2021/08/01 00:03:01;;;;;;;19.53;14.67;;;;;;;;;;5053260;28;20443;-72
2021/08/01 00:05:28;;;;;;;19.43;15.03;;;;;;;;;;5053695;28;20454;-72
2021/08/01 00:07:57;;;;;;;17.17;14.60;;;;;;;;;;5057114;28;20441;-72
2021/08/01 00:10:24;;;;;;;16.33;14.63;;;;;;;;;;5057542;28;20437;-72
2021/08/01 00:12:51;;;;;;;18.10;15.27;;;;;;;;;;5056559;28;20504;-72
2021/08/01 00:15:18;;;;;;;21.33;15.80;;;;;;;;;;5056570;28;20451;-72
2021/08/01 00:17:45;;;;;;;16.17;14.07;;;;;;;;;;5056756;28;20453;-72
2021/08/01 00:20:13;;;;;;;18.63;16.77;;;;;;;;;;5057644;28;20532;-73
2021/08/01 00:22:40;;;;;;;17.60;15.20;;;;;;;;;;5056815;28;20471;-72
2021/08/01 00:25:09;;;;;;;18.50;16.20;;;;;;;;;;5056762;28;20452;-72
2021/08/01 00:27:36;;;;;;;21.40;15.47;;;;;;;;;;5056381;28;20445;-72
2021/08/01 00:30:04;;;;;;;16.57;14.97;;;;;;;;;;5056338;28;20453;-72
2021/08/01 00:32:31;;;;;;;19.33;15.17;;;;;;;;;;5056222;28;20488;-72
2021/08/01 00:34:58;;;;;;;24.60;14.87;;;;;;;;;;5056623;28;20444;-72
2021/08/01 00:37:25;;;;;;;18.17;16.27;;;;;;;;;;5056280;28;20442;-72
2021/08/01 00:39:53;;;;;;;16.70;14.70;;;;;;;;;;5056586;28;20435;-72
2021/08/01 00:42:21;;;;;;;19.53;16.63;;;;;;;;;;5056397;28;20535;-72
2021/08/01 00:44:49;;;;;;;19.10;15.97;;;;;;;;;;5056749;28;20443;-71
2021/08/01 00:47:16;;;;;;;18.87;16.90;;;;;;;;;;5056516;28;20939;-72
2021/08/01 00:49:43;;;;;;;16.53;14.57;;;;;;;;;;5056282;28;20442;-72
2021/08/01 00:52:10;;;;;;;18.23;15.57;;;;;;;;;;5056519;28;20782;-72
2021/08/01 00:54:37;;;;;;;21.27;14.73;;;;;;;;;;5055869;28;20536;-72
2021/08/01 00:57:05;;;;;;;17.73;15.67;;;;;;;;;;5056166;28;20480;-72
2021/08/01 00:59:34;;;;;;;17.50;14.53;;;;;;;;;;5056112;28;20442;-72
2021/08/01 01:02:05;;;;;;;19.30;15.20;;;;;;;;;;5056225;28;20439;-71
2021/08/01 01:04:36;;;;;;;22.13;14.50;;;;;;;;;;5055959;28;20456;-72
2021/08/01 01:07:08;;;;;;;15.87;14.27;;;;;;;;;;5055783;28;20912;-72
2021/08/01 01:09:37;;;;;;;14.97;13.37;;;;;;;;;;5056240;28;20529;-72
2021/08/01 01:12:06;;;;;;;14.37;12.87;;;;;;;;;;5055449;28;20444;-72
2021/08/01 01:14:38;;;;;;;14.53;12.93;;;;;;;;;;5055365;28;20448;-72
2021/08/01 01:17:06;;;;;;;15.50;13.93;;;;;;;;;;5055895;28;20430;-72
2021/08/01 01:19:45;;;;;;;14.37;12.90;;;;;;;;;;5055182;28;20445;-72
2021/08/01 01:22:14;;;;;;;15.73;13.87;;;;;;;;;;5056390;28;20434;-72
2021/08/01 01:24:43;;;;;;;14.10;12.60;;;;;;;;;;5055360;28;20926;-71
2021/08/01 01:27:13;;;;;;;15.87;12.70;;;;;;;;;;5055589;28;20438;-72
2021/08/01 01:29:45;;;;;;;14.40;12.53;;;;;;;;;;5055639;28;20426;-72
2021/08/01 01:32:16;;;;;;;12.87;11.57;;;;;;;;;;5055451;28;20965;-72
2021/08/01 01:34:49;;;;;;;14.57;13.07;;;;;;;;;;5055611;28;20418;-71
2021/08/01 01:37:19;;;;;;;13.20;11.80;;;;;;;;;;5055201;28;20526;-72
2021/08/01 01:39:47;;;;;;;12.40;11.20;;;;;;;;;;5055459;28;20445;-72
2021/08/01 01:42:15;;;;;;;15.97;12.20;;;;;;;;;;5055456;28;20461;-73
2021/08/01 01:44:44;;;;;;;13.33;11.17;;;;;;;;;;5055454;28;20443;-72
2021/08/01 01:47:11;;;;;;;12.03;10.93;;;;;;;;;;5055157;28;20469;-71
2021/08/01 01:49:38;;;;;;;16.30;11.47;;;;;;;;;;5055430;28;20445;-71
2021/08/01 01:52:06;;;;;;;12.73;11.43;;;;;;;;;;5055173;28;20449;-71
2021/08/01 01:54:35;;;;;;;15.57;12.33;;;;;;;;;;5055001;28;20567;-72
2021/08/01 01:57:03;;;;;;;14.00;12.50;;;;;;;;;;5055767;28;20437;-73
2021/08/01 01:59:30;;;;;;;16.27;13.70;;;;;;;;;;5054955;28;20448;-72
2021/08/01 02:01:57;;;;;;;13.53;12.17;;;;;;;;;;5055452;28;20446;-72
2021/08/01 02:04:24;;;;;;;15.23;13.10;;;;;;;;;;5054872;28;20445;-72
2021/08/01 02:06:52;;;;;;;16.30;13.30;;;;;;;;;;5054822;28;20452;-72
2021/08/01 02:09:23;;;;;;;15.10;12.50;;;;;;;;;;5054790;28;20456;-72
2021/08/01 02:11:57;;;;;;;14.20;12.17;;;;;;;;;;5054842;28;20438;-72
2021/08/01 02:14:31;;;;;;;16.80;11.87;;;;;;;;;;5054896;28;20464;-72
2021/08/01 02:17:00;;;;;;;15.17;12.30;;;;;;;;;;5054531;28;20443;-72
2021/08/01 02:19:28;;;;;;;14.00;12.53;;;;;;;;;;5055157;28;20449;-73
2021/08/01 02:21:55;;;;;;;15.37;12.47;;;;;;;;;;5054562;28;20516;-73
2021/08/01 02:24:23;;;;;;;14.43;12.87;;;;;;;;;;5054516;28;20445;-73
2021/08/01 02:26:52;;;;;;;13.30;12.00;;;;;;;;;;5054449;28;20443;-73
2021/08/01 02:29:19;;;;;;;14.67;13.00;;;;;;;;;;5053825;28;20448;-72
2021/08/01 02:31:47;;;;;;;12.53;11.27;;;;;;;;;;5054049;28;20448;-72
2021/08/01 02:34:14;;;;;;;12.97;11.67;;;;;;;;;;5053938;28;20480;-72
2021/08/01 02:36:41;;;;;;;12.20;11.10;;;;;;;;;;5054317;28;20438;-72
2021/08/01 02:39:09;;;;;;;18.50;12.60;;;;;;;;;;5053939;28;20469;-72
2021/08/01 02:41:37;;;;;;;15.20;11.27;;;;;;;;;;5053928;28;20548;-72
2021/08/01 02:44:08;;;;;;;15.97;13.07;;;;;;;;;;5053847;28;20996;-72
2021/08/01 02:46:35;;;;;;;14.43;12.10;;;;;;;;;;5054177;28;20437;-72
2021/08/01 02:49:04;;;;;;;14.40;12.27;;;;;;;;;;5053748;28;20446;-73
2021/08/01 02:51:33;;;;;;;13.50;12.10;;;;;;;;;;5054037;28;20539;-72
2021/08/01 02:54:01;;;;;;;21.93;13.40;;;;;;;;;;5053937;28;20469;-72
2021/08/01 02:56:31;;;;;;;19.60;14.03;;;;;;;;;;5053900;28;20441;-72
2021/08/01 02:58:58;;;;;;;17.20;12.63;;;;;;;;;;5053926;28;20779;-71
2021/08/01 03:01:27;;;;;;;17.10;12.03;;;;;;;;;;5054280;28;20806;-70
2021/08/01 03:03:55;;;;;;;16.77;12.53;;;;;;;;;;5054417;28;20540;-69
2021/08/01 03:06:23;;;;;;;14.37;12.63;;;;;;;;;;5053804;28;20781;-72
2021/08/01 03:08:50;;;;;;;15.43;12.00;;;;;;;;;;5053751;28;20545;-73
2021/08/01 03:11:20;;;;;;;14.20;12.70;;;;;;;;;;5053785;28;20452;-72
2021/08/01 03:13:48;;;;;;;14.00;12.27;;;;;;;;;;5053310;28;20531;-72
2021/08/01 03:16:15;;;;;;;17.00;12.73;;;;;;;;;;5054061;28;20448;-72
2021/08/01 03:18:43;;;;;;;17.20;12.70;;;;;;;;;;5054410;28;20446;-72
2021/08/01 03:21:10;;;;;;;17.10;12.90;;;;;;;;;;5053241;28;20936;-72
2021/08/01 03:23:38;;;;;;;15.17;12.60;;;;;;;;;;5053604;28;20477;-72
2021/08/01 03:26:05;;;;;;;19.27;13.50;;;;;;;;;;5053488;28;20534;-72
2021/08/01 03:28:32;;;;;;;17.00;12.87;;;;;;;;;;5053545;28;20468;-72
2021/08/01 03:30:59;;;;;;;16.17;12.20;;;;;;;;;;5053521;28;20445;-72
2021/08/01 03:33:26;;;;;;;16.30;13.87;;;;;;;;;;5053896;28;20489;-72
2021/08/01 03:35:55;;;;;;;15.43;13.23;;;;;;;;;;5054152;28;20452;-73
2021/08/01 03:38:22;;;;;;;14.73;12.43;;;;;;;;;;5053172;28;20473;-72
2021/08/01 03:40:51;;;;;;;18.40;13.40;;;;;;;;;;5053464;28;20530;-72
2021/08/01 03:43:18;;;;;;;17.03;14.00;;;;;;;;;;5057505;28;20456;-72
2021/08/01 03:45:45;;;;;;;16.77;13.93;;;;;;;;;;5057253;28;20939;-73
2021/08/01 03:48:12;;;;;;;15.57;12.90;;;;;;;;;;5057538;28;20915;-71
2021/08/01 03:50:40;;;;;;;14.60;12.97;;;;;;;;;;5057461;28;20528;-70
2021/08/01 03:53:08;;;;;;;19.00;14.30;;;;;;;;;;5057019;28;20479;-72
2021/08/01 03:55:35;;;;;;;21.07;14.50;;;;;;;;;;5057305;28;20450;-72
2021/08/01 03:58:03;;;;;;;17.60;13.50;;;;;;;;;;5058073;28;20448;-72
2021/08/01 04:00:30;;;;;;;22.00;14.43;;;;;;;;;;5057188;28;20453;-71
2021/08/01 04:02:57;;;;;;;18.17;14.03;;;;;;;;;;5057149;28;20449;-71
2021/08/01 04:05:24;;;;;;;17.90;13.40;;;;;;;;;;5056783;28;20487;-70
2021/08/01 04:07:51;;;;;;;21.53;14.40;;;;;;;;;;5057104;28;20542;-71
2021/08/01 04:10:20;;;;;;;20.97;14.90;;;;;;;;;;5056995;28;20436;-71
2021/08/01 04:12:47;;;;;;;19.70;13.43;;;;;;;;;;5056959;28;20802;-71
2021/08/01 04:15:15;;;;;;;19.00;13.63;;;;;;;;;;5057409;28;20563;-71
2021/08/01 04:17:42;;;;;;;16.90;13.30;;;;;;;;;;5056948;28;20547;-72
2021/08/01 04:20:10;;;;;;;20.93;13.90;;;;;;;;;;5056544;28;20445;-71
2021/08/01 04:22:37;;;;;;;21.97;15.00;;;;;;;;;;5056500;28;20931;-71
2021/08/01 04:25:05;;;;;;;21.73;15.10;;;;;;;;;;5056805;28;20446;-71
2021/08/01 04:27:34;;;;;;;18.57;15.10;;;;;;;;;;5056690;28;20806;-72
2021/08/01 04:30:01;;;;;;;20.20;15.27;;;;;;;;;;5056684;28;20437;-72
2021/08/01 04:32:28;;;;;;;18.87;12.93;;;;;;;;;;5056660;28;20441;-71
2021/08/01 04:34:55;;;;;;;15.87;14.00;;;;;;;;;;5056543;28;20487;-71
2021/08/01 04:37:22;;;;;;;16.83;12.53;;;;;;;;;;5056085;28;20455;-72
2021/08/01 04:39:49;;;;;;;17.77;14.87;;;;;;;;;;5056474;28;20449;-71
2021/08/01 04:42:17;;;;;;;14.77;13.23;;;;;;;;;;5056180;28;20914;-72
2021/08/01 04:44:46;;;;;;;15.33;13.60;;;;;;;;;;5056906;28;20802;-72
2021/08/01 04:47:14;;;;;;;18.97;14.83;;;;;;;;;;5055879;28;20533;-72
2021/08/01 04:49:41;;;;;;;19.00;14.37;;;;;;;;;;5056935;28;20449;-81
2021/08/01 04:52:09;;;;;;;17.97;13.87;;;;;;;;;;5056914;28;20534;-84
2021/08/01 04:54:37;;;;;;;20.97;13.90;;;;;;;;;;5066827;28;20519;-84
2021/08/01 04:57:04;;;;;;;16.23;14.53;;;;;;;;;;5055967;28;20453;-83
2021/08/01 04:59:34;;;;;;;18.47;15.10;;;;;;;;;;5056202;28;20529;-82
2021/08/01 05:02:03;;;;;;;19.83;14.63;;;;;;;;;;5056196;28;20445;-82
2021/08/01 05:04:30;;;;;;;16.80;13.87;;;;;;;;;;5056036;28;20544;-82
2021/08/01 05:06:57;;;;;;;21.70;13.80;;;;;;;;;;5055940;28;20441;-83
2021/08/01 05:09:25;;;;;;;18.73;14.50;;;;;;;;;;5056054;28;20549;-82
2021/08/01 05:11:52;;;;;;;19.07;17.00;;;;;;;;;;5055980;28;20969;-83
2021/08/01 05:14:19;;;;;;;20.00;14.93;;;;;;;;;;5055966;28;20807;-82
2021/08/01 05:16:46;;;;;;;19.37;14.77;;;;;;;;;;5056210;28;20529;-82
2021/08/01 05:19:15;;;;;;;25.10;16.13;;;;;;;;;;5056068;28;20449;-82
2021/08/01 05:21:42;;;;;;;19.60;16.53;;;;;;;;;;5056158;28;20525;-83
2021/08/01 05:24:09;;;;;;;20.70;16.90;;;;;;;;;;5075289;28;20446;-83
2021/08/01 05:26:36;;;;;;;19.10;16.43;;;;;;;;;;5075520;28;20483;-84
2021/08/01 05:29:06;;;;;;;18.33;15.50;;;;;;;;;;5076143;28;20457;-84
2021/08/01 05:31:33;;;;;;;22.03;15.87;;;;;;;;;;5075855;28;20918;-83
2021/08/01 05:34:00;;;;;;;18.30;16.03;;;;;;;;;;5076050;28;20507;-85
2021/08/01 05:36:30;;;;;;;20.33;16.30;;;;;;;;;;5076376;28;20535;-81
2021/08/01 05:38:57;;;;;;;23.07;17.83;;;;;;;;;;5075665;28;20476;-82
2021/08/01 05:41:24;;;;;;;21.60;17.07;;;;;;;;;;5075166;28;20951;-81
2021/08/01 05:43:52;;;;;;;19.10;16.80;;;;;;;;;;5074959;28;20436;-80
2021/08/01 05:46:19;;;;;;;22.00;16.50;;;;;;;;;;5075602;28;20813;-81
2021/08/01 05:48:47;;;;;;;23.53;16.80;;;;;;;;;;5075759;28;20445;-81
2021/08/01 05:51:14;;;;;;;23.70;16.67;;;;;;;;;;5075239;28;20453;-81
2021/08/01 05:53:42;;;;;;;24.07;18.07;;;;;;;;;;5075073;28;21013;-75
2021/08/01 05:56:10;;;;;;;20.23;17.50;;;;;;;;;;5075822;28;20489;-76
2021/08/01 05:58:38;;;;;;;25.60;17.70;;;;;;;;;;5075765;28;20816;-84
2021/08/01 06:01:08;;;;;;;20.77;18.00;;;;;;;;;;5075178;28;20448;-83
2021/08/01 06:03:36;;;;;;;23.77;18.63;;;;;;;;;;5065730;28;20485;-82
2021/08/01 06:06:10;;;;;;;20.37;16.63;;;;;;;;;;5054905;28;20448;-81
2021/08/01 06:08:37;;;;;;;21.60;19.30;;;;;;;;;;5072895;28;20774;-82
2021/08/01 06:11:06;;;;;;;23.90;19.30;;;;;;;;;;5075298;28;20771;-81
2021/08/01 06:13:33;;;;;;;23.90;19.67;;;;;;;;;;5074304;28;20447;-81
2021/08/01 06:16:01;;;;;;;26.67;19.50;;;;;;;;;;5074280;28;20477;-82
2021/08/01 06:18:28;;;;;;;22.30;19.17;;;;;;;;;;5074530;28;20450;-80
2021/08/01 06:21:14;;;;;;;21.90;18.30;;;;;;;;;;5074226;28;20445;-81
2021/08/01 06:23:43;;;;;;;25.57;20.33;;;;;;;;;;5075102;28;20436;-80
2021/08/01 06:26:12;;;;;;;22.13;19.60;;;;;;;;;;5074607;28;20449;-77
2021/08/01 06:28:39;;;;;;;25.27;20.97;;;;;;;;;;5074096;28;20536;-80
2021/08/01 06:31:07;;;;;;;23.13;20.07;;;;;;;;;;5074523;28;20428;-80
2021/08/01 06:33:35;;;;;;;21.67;19.43;;;;;;;;;;5074423;28;20447;-81
2021/08/01 06:36:05;;;;;;;23.13;19.43;;;;;;;;;;5074319;28;20563;-81
2021/08/01 06:38:32;;;;;;;21.30;19.00;;;;;;;;;;5074420;28;20472;-82
2021/08/01 06:41:00;;;;;;;24.03;20.53;;;;;;;;;;5074528;28;20444;-76
2021/08/01 06:43:28;;;;;;;22.83;19.57;;;;;;;;;;5074092;28;20519;-73
2021/08/01 06:45:56;;;;;;;24.90;20.83;;;;;;;;;;5073992;28;20947;-73
2021/08/01 06:48:23;;;;;;;24.17;21.63;;;;;;;;;;5073242;28;20465;-73
2021/08/01 06:50:52;;;;;;;22.97;20.53;;;;;;;;;;5073558;28;20494;-73
2021/08/01 06:53:19;;;;;;;25.33;22.67;;;;;;;;;;5074096;28;20506;-72
2021/08/01 06:55:47;;;;;;;24.63;22.03;;;;;;;;;;5073811;28;20572;-73
2021/08/01 06:58:18;;;;;;;24.43;21.80;;;;;;;;;;5073726;28;20532;-73
2021/08/01 07:00:47;;;;;;;30.03;23.80;;;;;;;;;;5074145;28;20772;-73
2021/08/01 07:03:15;;;;;;;24.07;21.43;;;;;;;;;;5073620;28;20932;-73
2021/08/01 07:05:42;;;;;;;25.07;22.33;;;;;;;;;;5073835;28;20874;-73
2021/08/01 07:08:09;;;;;;;26.60;23.07;;;;;;;;;;5073458;28;20436;-73
2021/08/01 07:10:37;;;;;;;28.07;22.60;;;;;;;;;;5073727;28;20525;-74
2021/08/01 07:13:04;;;;;;;27.50;23.13;;;;;;;;;;5074046;28;20848;-73
2021/08/01 07:15:32;;;;;;;24.63;20.93;;;;;;;;;;5072835;28;21041;-73
2021/08/01 07:18:01;;;;;;;25.57;22.87;;;;;;;;;;5073303;28;20445;-73
2021/08/01 07:20:28;;;;;;;29.10;21.00;;;;;;;;;;5074035;28;20438;-73
2021/08/01 07:22:55;;;;;;;23.43;20.60;;;;;;;;;;5073568;28;20446;-71
2021/08/01 07:25:23;;;;;;;24.17;19.13;;;;;;;;;;5074323;28;20520;-74
2021/08/01 07:27:50;;;;;;;33.50;21.70;;;;;;;;;;5073561;28;20871;-74
2021/08/01 07:30:17;;;;;;;21.50;19.20;;;;;;;;;;5073249;28;20439;-73
2021/08/01 07:32:44;;;;;;;20.13;18.10;;;;;;;;;;5073314;28;20813;-74
2021/08/01 07:35:13;;;;;;;22.03;18.80;;;;;;;;;;5073586;28;20836;-73
2021/08/01 07:37:40;;;;;;;23.10;18.70;;;;;;;;;;5073130;28;20473;-73
2021/08/01 07:40:08;;;;;;;19.63;17.57;;;;;;;;;;5073308;28;20435;-74
2021/08/01 07:42:36;;;;;;;17.40;15.60;;;;;;;;;;5073328;28;20472;-75
2021/08/01 07:45:04;;;;;;;17.07;15.47;;;;;;;;;;5073054;28;20450;-73
2021/08/01 07:47:34;;;;;;;20.17;17.73;;;;;;;;;;5073103;28;20452;-74
2021/08/01 07:50:03;;;;;;;22.10;17.50;;;;;;;;;;5073876;28;20438;-74
2021/08/01 07:52:31;;;;;;;18.50;16.60;;;;;;;;;;5073529;28;20440;-74
2021/08/01 07:55:00;;;;;;;17.00;15.40;;;;;;;;;;5072864;28;20472;-74
2021/08/01 07:57:29;;;;;;;17.33;15.63;;;;;;;;;;5073043;28;20858;-74
2021/08/01 07:59:57;;;;;;;15.50;13.73;;;;;;;;;;5073173;28;20451;-74
2021/08/01 08:02:24;;;;;;;14.27;12.83;;;;;;;;;;5073654;28;20922;-73
2021/08/01 08:04:52;;;;;;;15.20;13.60;;;;;;;;;;5073572;28;20825;-74
2021/08/01 08:07:20;;;;;;;15.20;13.70;;;;;;;;;;5073172;28;20447;-74
2021/08/01 08:09:49;;;;;;;14.60;13.30;;;;;;;;;;5073118;28;20441;-74
2021/08/01 08:12:16;;;;;;;16.63;12.10;;;;;;;;;;5072730;28;20932;-74
2021/08/01 08:14:44;;;;;;;14.80;11.40;;;;;;;;;;5073192;28;20482;-72
2021/08/01 08:17:11;;;;;;;17.30;12.53;;;;;;;;;;5073007;28;20524;-76
2021/08/01 08:19:39;;;;;;;14.47;13.17;;;;;;;;;;5074029;28;20597;-75
2021/08/01 08:22:07;;;;;;;11.93;10.63;;;;;;;;;;5073887;28;20485;-75
2021/08/01 08:24:34;;;;;;;13.73;11.30;;;;;;;;;;5071670;28;20497;-77
2021/08/01 08:27:03;;;;;;;14.97;11.30;;;;;;;;;;5062040;28;20485;-77
2021/08/01 08:29:30;;;;;;;11.87;10.73;;;;;;;;;;5076764;28;20438;-78
2021/08/01 08:31:58;;;;;;;14.67;10.43;;;;;;;;;;5076185;28;20448;-78
2021/08/01 08:34:26;;;;;;;22.53;10.90;;;;;;;;;;5076586;28;20509;-77
2021/08/01 08:36:54;;;;;;;11.07;10.17;;;;;;;;;;5076371;28;20448;-77
2021/08/01 08:39:22;;;;;;;10.83;9.83;;;;;;;;;;5076412;28;20958;-76
2021/08/01 08:41:50;;;;;;;13.30;9.93;;;;;;;;;;5076280;28;20445;-78
2021/08/01 08:44:19;;;;;;;12.27;11.17;;;;;;;;;;5076089;28;20448;-76
2021/08/01 08:46:48;;;;;;;14.80;10.83;;;;;;;;;;5076196;28;20440;-78
2021/08/01 08:49:16;;;;;;;16.60;9.47;;;;;;;;;;5076257;28;20448;-77
2021/08/01 08:51:45;;;;;;;12.27;11.03;;;;;;;;;;5075720;28;20472;-74
2021/08/01 08:54:15;;;;;;;12.07;11.03;;;;;;;;;;5075726;28;20456;-78
2021/08/01 08:56:43;;;;;;;10.03;9.23;;;;;;;;;;5075892;28;20492;-77
2021/08/01 08:59:12;;;;;;;11.43;10.30;;;;;;;;;;5075901;28;20450;-76
2021/08/01 09:01:40;;;;;;;12.20;9.27;;;;;;;;;;5076143;28;20441;-78
2021/08/01 09:04:08;;;;;;;9.43;8.50;;;;;;;;;;5075703;28;20478;-77
2021/08/01 09:06:35;;;;;;;11.47;8.00;;;;;;;;;;5075858;28;20535;-77
2021/08/01 09:09:02;;;;;;;9.10;7.90;;;;;;;;;;5075651;28;20562;-76
2021/08/01 09:11:29;;;;;;;10.07;9.03;;;;;;;;;;5075878;28;20448;-82
2021/08/01 09:13:57;;;;;;;9.70;8.80;;;;;;;;;;5075980;28;20451;-80
2021/08/01 09:16:41;;;;;;;9.33;8.53;;;;;;;;;;5075890;28;20524;-79
2021/08/01 09:19:23;;;;;;;10.70;9.70;;;;;;;;;;5075832;28;20443;-75
2021/08/01 09:21:50;;;;;;;9.37;8.57;;;;;;;;;;5075709;28;20444;-73
2021/08/01 09:24:17;;;;;;;10.70;9.37;;;;;;;;;;5075483;28;20469;-79
2021/08/01 09:26:44;;;;;;;12.03;9.30;;;;;;;;;;5055332;28;20447;-78
2021/08/01 09:29:12;;;;;;;11.20;8.80;;;;;;;;;;5055453;28;20445;-76
2021/08/01 09:31:39;;;;;;;10.80;9.70;;;;;;;;;;5055581;28;20476;-78
2021/08/01 09:37:03;;;;;;;10.63;9.63;;;;;;;;;;5090942;28;20514;-78
2021/08/01 09:39:30;;;;;;;9.83;8.83;;;;;;;;;;5090901;28;20441;-77
2021/08/01 09:42:02;;;;;;;13.53;10.10;;;;;;;;;;5091056;28;20471;-77
2021/08/01 09:44:29;;;;;;;13.17;9.43;;;;;;;;;;5091019;28;20488;-78
2021/08/01 09:46:57;;;;;;;10.87;9.43;;;;;;;;;;5090945;28;20444;-77
2021/08/01 09:49:25;;;;;;;9.50;8.70;;;;;;;;;;5091583;28;20464;-77
2021/08/01 09:51:53;;;;;;;9.57;8.23;;;;;;;;;;5090846;28;20452;-75
2021/08/01 09:54:22;;;;;;;11.53;9.93;;;;;;;;;;5090099;28;20953;-78
2021/08/01 09:56:53;;;;;;;12.20;8.80;;;;;;;;;;5070028;28;20481;-75
2021/08/01 09:59:22;;;;;;;9.83;8.93;;;;;;;;;;5070372;28;20522;-76
2021/08/01 10:01:49;;;;;;;10.63;9.27;;;;;;;;;;5070365;28;20525;-77
2021/08/01 10:04:23;;;;;;;9.67;8.87;;;;;;;;;;5070638;28;20444;-79
2021/08/01 10:06:59;;;;;;;10.13;9.13;;;;;;;;;;5070498;28;20454;-79
2021/08/01 10:09:28;;;;;;;9.00;8.03;;;;;;;;;;5070085;28;20520;-75
2021/08/01 10:11:55;;;;;;;11.60;9.83;;;;;;;;;;5070662;28;20932;-75
2021/08/01 10:14:23;;;;;;;11.50;10.50;;;;;;;;;;5070200;28;20442;-77
2021/08/01 10:16:50;;;;;;;10.83;9.90;;;;;;;;;;5069790;28;20987;-78
2021/08/01 10:19:19;;;;;;;13.00;10.63;;;;;;;;;;5069133;28;20447;-75
2021/08/01 10:21:46;;;;;;;11.83;10.83;;;;;;;;;;5070133;28;20470;-78
2021/08/01 10:24:15;;;;;;;10.13;9.33;;;;;;;;;;5069990;28;20474;-78
2021/08/01 10:26:48;;;;;;;11.20;10.10;;;;;;;;;;5069960;28;20460;-80
2021/08/01 10:29:16;;;;;;;9.50;8.60;;;;;;;;;;5069927;28;20442;-72
2021/08/01 10:31:47;;;;;;;10.93;9.93;;;;;;;;;;5070296;28;20874;-78
2021/08/01 10:34:17;;;;;;;10.90;9.80;;;;;;;;;;5069671;28;20939;-80
2021/08/01 10:36:48;;;;;;;11.70;10.70;;;;;;;;;;5069497;28;20500;-78
2021/08/01 10:39:17;;;;;;;11.63;10.43;;;;;;;;;;5070231;28;20442;-75
2021/08/01 10:41:46;;;;;;;11.20;10.10;;;;;;;;;;5069666;28;20523;-77
2021/08/01 10:44:13;;;;;;;9.83;8.93;;;;;;;;;;5069788;28;20450;-77
2021/08/01 10:46:42;;;;;;;10.77;9.80;;;;;;;;;;5065364;28;20447;-80
2021/08/01 10:49:11;;;;;;;11.77;10.77;;;;;;;;;;5056392;28;20439;-74
2021/08/01 10:51:38;;;;;;;10.20;9.30;;;;;;;;;;5056999;28;20443;-79
2021/08/01 10:54:26;;;;;;;13.07;11.77;;;;;;;;;;5057146;28;20456;-73
2021/08/01 10:57:12;;;;;;;10.77;9.73;;;;;;;;;;5057236;28;20514;-80
2021/08/01 10:59:58;;;;;;;9.73;8.90;;;;;;;;;;5056382;28;20476;-79
2021/08/01 11:02:26;;;;;;;10.20;9.33;;;;;;;;;;5055982;28;20430;-78
2021/08/01 11:04:53;;;;;;;10.37;9.27;;;;;;;;;;5055568;28;20486;-82
2021/08/01 11:07:39;;;;;;;9.93;9.03;;;;;;;;;;5056693;28;20440;-79
2021/08/01 11:10:25;;;;;;;9.50;8.60;;;;;;;;;;5055885;28;20450;-77
2021/08/01 11:12:53;;;;;;;10.93;8.30;;;;;;;;;;5055856;28;20496;-75
2021/08/01 11:15:41;;;;;;;8.87;7.97;;;;;;;;;;5055465;28;20472;-78
2021/08/01 11:29:20;;;;;;;5.10;4.70;;;;;;;;;;5122331;27;21108;-71
2021/08/01 11:32:06;;;;;;;6.80;4.60;;;;;;;;;;5111386;28;20458;-72
2021/08/01 11:34:33;;;;;;;6.50;6.00;;;;;;;;;;5120218;28;20527;-72
2021/08/01 11:37:15;;;;;;;6.23;5.80;;;;;;;;;;5131230;28;20536;-74
2021/08/01 11:39:52;;;;;;;6.27;5.70;;;;;;;;;;5131256;27;20430;-70
2021/08/01 11:42:22;;;;;;;8.00;5.97;;;;;;;;;;5131742;28;20464;-73
2021/08/01 11:44:58;;;;;;;8.33;6.47;;;;;;;;;;5132032;28;20502;-71
2021/08/01 11:47:25;;;;;;;6.63;5.80;;;;;;;;;;5131161;28;20447;-71
2021/08/01 11:49:53;;;;;;;5.70;5.10;;;;;;;;;;5131437;28;20442;-72
2021/08/01 11:52:22;;;;;;;6.70;6.10;;;;;;;;;;5131013;28;20944;-72
2021/08/01 11:54:54;;;;;;;6.27;5.67;;;;;;;;;;5131269;28;20492;-72
2021/08/01 11:57:22;;;;;;;5.40;5.00;;;;;;;;;;5131733;28;20540;-74
2021/08/01 11:59:54;;;;;;;6.37;5.50;;;;;;;;;;5130763;28;20450;-71
2021/08/01 12:02:22;;;;;;;7.00;6.10;;;;;;;;;;5131305;28;20508;-70
2021/08/01 12:04:53;;;;;;;7.23;6.00;;;;;;;;;;5131090;28;20443;-74
2021/08/01 12:07:20;;;;;;;7.20;6.33;;;;;;;;;;5130928;28;20447;-70
2021/08/01 12:09:47;;;;;;;5.93;4.93;;;;;;;;;;5131019;28;20438;-72
2021/08/01 12:12:15;;;;;;;6.63;6.03;;;;;;;;;;5131529;28;20448;-70
2021/08/01 12:14:42;;;;;;;10.70;6.97;;;;;;;;;;5130942;28;20789;-73
2021/08/01 12:17:10;;;;;;;6.47;5.87;;;;;;;;;;5130361;28;20545;-72
2021/08/01 12:19:41;;;;;;;6.63;6.03;;;;;;;;;;5130696;28;20479;-69
2021/08/01 12:22:09;;;;;;;5.90;5.40;;;;;;;;;;5130336;28;20431;-72
2021/08/01 12:24:40;;;;;;;5.37;4.97;;;;;;;;;;5130904;28;20448;-71
2021/08/01 12:27:09;;;;;;;6.90;6.20;;;;;;;;;;5130493;27;20437;-73
2021/08/01 12:29:38;;;;;;;6.60;5.97;;;;;;;;;;5120519;28;20518;-73
2021/08/01 12:32:23;;;;;;;6.60;5.90;;;;;;;;;;5115703;28;20956;-72
2021/08/01 12:34:53;;;;;;;9.50;6.13;;;;;;;;;;5116116;28;20442;-71
2021/08/01 12:37:20;;;;;;;7.30;5.17;;;;;;;;;;5116353;28;20577;-70
2021/08/01 12:39:48;;;;;;;5.90;5.40;;;;;;;;;;5116292;28;20445;-71
2021/08/01 12:42:16;;;;;;;6.33;5.83;;;;;;;;;;5116689;28;20548;-72
2021/08/01 12:44:50;;;;;;;7.40;6.13;;;;;;;;;;5116348;28;20940;-72
2021/08/01 12:47:18;;;;;;;9.00;7.40;;;;;;;;;;5117167;28;20484;-70
2021/08/01 12:49:45;;;;;;;9.87;6.80;;;;;;;;;;5116267;28;20437;-72
2021/08/01 12:52:18;;;;;;;6.77;6.07;;;;;;;;;;5117201;28;20441;-70
2021/08/01 12:54:46;;;;;;;6.40;5.80;;;;;;;;;;5116881;28;20517;-69
2021/08/01 12:57:13;;;;;;;8.00;6.23;;;;;;;;;;5115860;28;20448;-71
2021/08/01 12:59:40;;;;;;;7.57;6.27;;;;;;;;;;5116090;28;20533;-72
2021/08/01 13:02:09;;;;;;;9.47;6.10;;;;;;;;;;5116008;28;20544;-74
2021/08/01 13:04:41;;;;;;;6.73;6.13;;;;;;;;;;5116096;28;20449;-72
2021/08/01 13:07:08;;;;;;;8.50;5.93;;;;;;;;;;5116648;28;20441;-70
2021/08/01 13:09:37;;;;;;;7.47;6.67;;;;;;;;;;5115837;28;20529;-71
2021/08/01 13:12:11;;;;;;;7.33;6.80;;;;;;;;;;5116961;28;20470;-69
2021/08/01 13:14:40;;;;;;;7.93;7.13;;;;;;;;;;5115764;28;20528;-72
2021/08/01 13:17:08;;;;;;;8.03;6.80;;;;;;;;;;5115702;28;20466;-72
2021/08/01 13:19:39;;;;;;;9.00;6.00;;;;;;;;;;5115599;28;20452;-74
2021/08/01 13:22:08;;;;;;;8.03;7.00;;;;;;;;;;5115628;28;20522;-71
2021/08/01 13:24:37;;;;;;;8.30;7.37;;;;;;;;;;5115887;28;20434;-70
2021/08/01 13:27:05;;;;;;;7.83;6.70;;;;;;;;;;5115475;28;20533;-71
2021/08/01 13:29:32;;;;;;;8.67;5.60;;;;;;;;;;5115479;28;20446;-72
2021/08/01 13:32:06;;;;;;;8.13;7.37;;;;;;;;;;5115459;28;20431;-74
2021/08/01 13:34:37;;;;;;;8.30;7.50;;;;;;;;;;5115818;28;20422;-71
2021/08/01 13:37:26;;;;;;;12.83;7.30;;;;;;;;;;5115390;28;20441;-72
2021/08/01 13:39:56;;;;;;;10.57;8.33;;;;;;;;;;5115311;28;20428;-76
2021/08/01 13:42:24;;;;;;;7.33;6.73;;;;;;;;;;5114827;28;20441;-73
2021/08/01 13:45:05;;;;;;;7.83;5.97;;;;;;;;;;5116184;28;20442;-73
2021/08/01 13:47:33;;;;;;;6.97;6.37;;;;;;;;;;5115106;28;20459;-72
2021/08/01 13:50:01;;;;;;;8.70;6.20;;;;;;;;;;5114802;28;20446;-69
2021/08/01 13:52:31;;;;;;;7.13;6.53;;;;;;;;;;5115047;28;20925;-73
2021/08/01 13:55:05;;;;;;;7.23;6.60;;;;;;;;;;5114978;28;20438;-74
2021/08/01 13:57:32;;;;;;;7.70;6.90;;;;;;;;;;5115017;28;20437;-73
2021/08/01 14:00:01;;;;;;;8.77;7.97;;;;;;;;;;5114827;28;20525;-72
2021/08/01 14:02:28;;;;;;;7.10;6.30;;;;;;;;;;5115082;28;20878;-75
2021/08/01 14:04:55;;;;;;;10.20;7.37;;;;;;;;;;5114538;28;20484;-74
2021/08/01 14:07:23;;;;;;;8.37;7.43;;;;;;;;;;5114720;28;20441;-72
2021/08/01 14:09:51;;;;;;;7.67;6.87;;;;;;;;;;5114861;28;20447;-74
2021/08/01 14:12:19;;;;;;;7.50;6.90;;;;;;;;;;5115145;28;20531;-74
2021/08/01 14:14:47;;;;;;;8.00;7.20;;;;;;;;;;5114713;28;20740;-74
2021/08/01 14:17:14;;;;;;;8.37;7.57;;;;;;;;;;5114729;28;20439;-75
2021/08/01 14:19:47;;;;;;;7.47;6.80;;;;;;;;;;5114247;28;20482;-72
2021/08/01 14:22:16;;;;;;;6.83;6.33;;;;;;;;;;5114427;28;20424;-73
2021/08/01 14:24:43;;;;;;;8.87;6.90;;;;;;;;;;5115060;28;20542;-75
2021/08/01 14:27:11;;;;;;;7.97;7.17;;;;;;;;;;5114244;28;20461;-73
2021/08/01 14:29:41;;;;;;;7.00;6.40;;;;;;;;;;5112834;28;20439;-73
2021/08/01 14:32:09;;;;;;;7.40;6.80;;;;;;;;;;5093893;28;20442;-73
2021/08/01 14:34:37;;;;;;;7.53;6.87;;;;;;;;;;5101986;28;20525;-72
2021/08/01 14:37:04;;;;;;;6.53;6.03;;;;;;;;;;5114230;28;20469;-75
2021/08/01 14:39:33;;;;;;;6.73;6.13;;;;;;;;;;5114267;28;20872;-72
2021/08/01 14:42:00;;;;;;;6.73;6.03;;;;;;;;;;5114342;28;20454;-72
2021/08/01 14:44:28;;;;;;;7.60;6.90;;;;;;;;;;5114482;28;20447;-73
2021/08/01 14:46:58;;;;;;;8.67;7.77;;;;;;;;;;5114019;28;20447;-73
2021/08/01 14:49:27;;;;;;;12.70;8.30;;;;;;;;;;5114237;28;20484;-74